Impacts METAR Board
IDs:

KTPA - Tampa Intl Arpt, FL, US

Updated at: 0000 UTC 24 Jun 2018
Potential Impact None Slight Moderate High
Time 23/12Z 23/13Z 23/14Z 23/15Z 23/16Z 23/17Z 23/18Z 23/19Z 23/20Z 23/21Z 23/22Z 23/23Z 24/00Z
Temp84 86 87 88 89 90 90 91 91 91 90 90 88
Dewpt75 75 73 73 72 71 74 71 72 73 72 73 73
Altim30.02 30.02 30.03 30.04 30.03 30.03 30.02 30.01 30.00 29.99 29.99 29.99 30.01
VIS10 10 10 10 10 10 10 10 10 10 10 10 10
CIG-- -- -- -- -- -- -- -- -- -- 280 280 280
CoverSCTSCTSCTSCTSCTSCTSCTSCTSCTSCTBKNBKNBKN
FltCatVFRVFRVFRVFRVFRVFRVFRVFRVFRVFRVFRVFRVFR
WX--------------------------
WDir240240260260250270270260260280320260320
WSpd5 8 8 10 10 8 10 11 10 10 10 6 6
WGst-- -- -- -- -- -- -- -- -- 18 16 -- --
Raw hourly METARs
KTPA 231153Z 24005KT 10SM FEW025TCU SCT250 29/24 A3002 RMK AO2 SLP165 TCU NE-E AND DSNT NW 70036 T02890239 10289 20278 53015
KTPA 231253Z 24008KT 10SM SCT026 SCT250 30/24 A3002 RMK AO2 SLP166 T03000239
KTPA 231353Z 26008KT 10SM FEW028 SCT250 31/23 A3003 RMK AO2 SLP168 TCU DSNT N T03060228
KTPA 231453Z 26010KT 10SM SCT034 SCT250 31/23 A3004 RMK AO2 SLP170 T03110228 53006
KTPA 231553Z 25010KT 10SM SCT035 SCT250 32/22 A3003 RMK AO2 SLP169 T03170222
KTPA 231653Z 27008KT 230V290 10SM SCT040 SCT250 32/22 A3003 RMK AO2 SLP168 T03220217
KTPA 231753Z 27010KT 10SM SCT036 SCT250 32/23 A3002 RMK AO2 SLP165 T03220233 10328 20289 58005
KTPA 231853Z 26011KT 10SM SCT036TCU 33/22 A3001 RMK AO2 SLP161 CB DSNT NE-E TCU NE-E AND SE T03280217
KTPA 231953Z 26010KT 10SM SCT042 SCT230 33/22 A3000 RMK AO2 SLP158 CB DSNT NE-E T03280222
KTPA 232053Z 28010G18KT 10SM SCT042TCU SCT280 33/23 A2999 RMK AO2 SLP156 CB DSNT NE-SE TCU NE-E T03280228 56009
KTPA 232153Z 32010G16KT 10SM FEW035 BKN280 32/22 A2999 RMK AO2 SLP156 T03220222
KTPA 232253Z 26006KT 10SM FEW033 SCT150 BKN280 32/23 A2999 RMK AO2 SLP155 T03220228
KTPA 232353Z 32006KT 10SM FEW035 BKN280 31/23 A3001 RMK AO2 SLP161 T03110228 10333 20311 53005



Page loaded:  00:59 UTC  |   05:59 PM Pacific  |   06:59 PM Mountain  |   07:59 PM Central  |   08:59 PM Eastern

 

ADVISORIES

FORECASTS

FORECASTS

OBSERVATIONS

USER TOOLS

ABOUT US